Curtis, NE

10:07 AM CDT on August 30, 2016 (GMT -0500)
McCook Municipal | | Change Station

Elev 2579 ft 40.20 °N, 100.59 °W | Updated 14 minutes ago

Overcast
Overcast
67 °F
Feels Like 67 °F
N
5
Wind Variable Wind from East

Today
High -- | Low -- °F
--% Chance of Precip.
Yesterday
High -- | Low -- °F
Precip. -- in
Pressure 30.20 in
Visibility 3.0 miles
Clouds Mostly Cloudy 200 ft
Mostly Cloudy 1200 ft
Overcast 8000 ft
Dew Point 66 °F
Humidity 97%
Rainfall 0.00 in
Snow Depth Not available.
7:07 AM 8:16 PM
Waning Crescent, 3% visible
METAR KMCK 301453Z AUTO 10004KT 3SM BR BKN002 BKN012 OVC080 19/19 A3025 RMK AO2 CIG 002V005 SLP227 T01940189 51007
Pressure 30.20 in
Visibility 3.0 miles
Clouds Mostly Cloudy 200 ft
Mostly Cloudy 1200 ft
Overcast 8000 ft
Dew Point 66 °F
Humidity 97%
Rainfall 0.00 in
Snow Depth Not available.
7:07 AM 8:16 PM
Waning Crescent, 3% visible
METAR KMCK 301453Z AUTO 10004KT 3SM BR BKN002 BKN012 OVC080 19/19 A3025 RMK AO2 CIG 002V005 SLP227 T01940189 51007

10-Day Weather Forecast

Almanac

Astronomy

Aug. 30, 2016 Rise Set
Actual Time
Civil Twilight
Nautical Twilight
Astronomical Twilight
Moon
Length of Visible Light
Length of Day
Tomorrow will be .
, % of the Moon is Illuminated

Today's Extremes

State Highs State Lows

Community

WunderPhotos

Upload Photos

1,935,853 photos uploaded!

WunderBlog® & News

Nearby

Air Quality

  Air Quality AQ Index Pollutant
Not available.

Snow Depth

Station Depth Elevation

Earthquake Activity

City Distance Mag. Time & Date
Minimum magnitude displayed is 2.5.

Coastal Water Temperatures

Place Temperature

Stations

Nearby Weather Stations

Station Location Temp. Windchill Dew Point Humidity Wind Precip. Elev Updated Type
                   

Watches & Warnings

There are currently no watches in effect.